sensor_id;sensor_type;location;lat;lon;timestamp;P1;durP1;ratioP1;P2;durP2;ratioP2
19727;SDS011;10015;52.530;13.390;2022-08-21T00:01:47;18.77;;;10.70;;
19727;SDS011;10015;52.530;13.390;2022-08-21T00:04:13;19.95;;;10.88;;
19727;SDS011;10015;52.530;13.390;2022-08-21T00:06:39;13.82;;;7.00;;
19727;SDS011;10015;52.530;13.390;2022-08-21T00:09:06;9.30;;;5.20;;
19727;SDS011;10015;52.530;13.390;2022-08-21T00:11:34;7.72;;;5.32;;
19727;SDS011;10015;52.530;13.390;2022-08-21T00:14:01;8.40;;;5.30;;
19727;SDS011;10015;52.530;13.390;2022-08-21T00:16:27;7.35;;;5.13;;
19727;SDS011;10015;52.530;13.390;2022-08-21T00:18:53;8.82;;;4.97;;
19727;SDS011;10015;52.530;13.390;2022-08-21T00:21:19;9.02;;;4.80;;
19727;SDS011;10015;52.530;13.390;2022-08-21T00:23:45;8.07;;;4.90;;
19727;SDS011;10015;52.530;13.390;2022-08-21T00:26:11;6.72;;;5.00;;
19727;SDS011;10015;52.530;13.390;2022-08-21T00:28:37;7.40;;;4.90;;
19727;SDS011;10015;52.530;13.390;2022-08-21T00:31:03;7.55;;;4.40;;
19727;SDS011;10015;52.530;13.390;2022-08-21T00:33:29;6.75;;;4.32;;
19727;SDS011;10015;52.530;13.390;2022-08-21T00:35:55;6.18;;;4.43;;
19727;SDS011;10015;52.530;13.390;2022-08-21T00:38:21;10.15;;;4.80;;
19727;SDS011;10015;52.530;13.390;2022-08-21T00:40:50;7.35;;;4.47;;
19727;SDS011;10015;52.530;13.390;2022-08-21T00:43:24;5.88;;;4.05;;
19727;SDS011;10015;52.530;13.390;2022-08-21T00:45:53;7.07;;;4.47;;
19727;SDS011;10015;52.530;13.390;2022-08-21T00:48:21;6.15;;;4.65;;
19727;SDS011;10015;52.530;13.390;2022-08-21T00:50:58;6.18;;;4.18;;
19727;SDS011;10015;52.530;13.390;2022-08-21T00:53:28;6.30;;;4.63;;
19727;SDS011;10015;52.530;13.390;2022-08-21T00:55:56;7.85;;;4.50;;
19727;SDS011;10015;52.530;13.390;2022-08-21T00:58:25;7.18;;;4.32;;
19727;SDS011;10015;52.530;13.390;2022-08-21T01:00:52;5.85;;;4.38;;
19727;SDS011;10015;52.530;13.390;2022-08-21T01:03:19;9.25;;;4.68;;
19727;SDS011;10015;52.530;13.390;2022-08-21T01:05:47;6.93;;;5.10;;
19727;SDS011;10015;52.530;13.390;2022-08-21T01:08:13;6.15;;;4.22;;
19727;SDS011;10015;52.530;13.390;2022-08-21T01:10:42;7.18;;;4.93;;
19727;SDS011;10015;52.530;13.390;2022-08-21T01:13:09;6.15;;;4.30;;
19727;SDS011;10015;52.530;13.390;2022-08-21T01:15:38;9.80;;;5.35;;
19727;SDS011;10015;52.530;13.390;2022-08-21T01:18:08;9.23;;;5.05;;
19727;SDS011;10015;52.530;13.390;2022-08-21T01:20:37;9.52;;;5.07;;
19727;SDS011;10015;52.530;13.390;2022-08-21T01:23:07;7.55;;;4.90;;
19727;SDS011;10015;52.530;13.390;2022-08-21T01:25:33;7.00;;;4.57;;
19727;SDS011;10015;52.530;13.390;2022-08-21T01:28:02;6.93;;;4.85;;
19727;SDS011;10015;52.530;13.390;2022-08-21T01:30:34;6.35;;;4.50;;
19727;SDS011;10015;52.530;13.390;2022-08-21T01:33:01;5.70;;;5.07;;
19727;SDS011;10015;52.530;13.390;2022-08-21T01:35:27;7.63;;;5.05;;
19727;SDS011;10015;52.530;13.390;2022-08-21T01:37:54;7.75;;;5.10;;
19727;SDS011;10015;52.530;13.390;2022-08-21T01:40:19;5.93;;;4.57;;
19727;SDS011;10015;52.530;13.390;2022-08-21T01:42:46;7.32;;;5.03;;
19727;SDS011;10015;52.530;13.390;2022-08-21T01:45:14;6.38;;;5.05;;
19727;SDS011;10015;52.530;13.390;2022-08-21T01:47:41;7.43;;;4.50;;
19727;SDS011;10015;52.530;13.390;2022-08-21T01:50:09;8.18;;;4.43;;
19727;SDS011;10015;52.530;13.390;2022-08-21T01:52:39;10.20;;;4.40;;
19727;SDS011;10015;52.530;13.390;2022-08-21T01:55:09;5.70;;;4.32;;
19727;SDS011;10015;52.530;13.390;2022-08-21T01:57:36;6.25;;;4.15;;
19727;SDS011;10015;52.530;13.390;2022-08-21T02:00:04;5.00;;;3.80;;
19727;SDS011;10015;52.530;13.390;2022-08-21T02:02:37;6.00;;;4.30;;
19727;SDS011;10015;52.530;13.390;2022-08-21T02:05:04;6.55;;;4.32;;
19727;SDS011;10015;52.530;13.390;2022-08-21T02:07:37;4.22;;;3.83;;
19727;SDS011;10015;52.530;13.390;2022-08-21T02:10:30;5.85;;;4.00;;
19727;SDS011;10015;52.530;13.390;2022-08-21T02:12:57;4.82;;;3.97;;
19727;SDS011;10015;52.530;13.390;2022-08-21T02:15:26;7.00;;;3.95;;
19727;SDS011;10015;52.530;13.390;2022-08-21T02:17:55;6.93;;;3.80;;
19727;SDS011;10015;52.530;13.390;2022-08-21T02:20:24;7.55;;;3.58;;
19727;SDS011;10015;52.530;13.390;2022-08-21T02:22:51;6.90;;;3.50;;
19727;SDS011;10015;52.530;13.390;2022-08-21T02:25:20;5.90;;;3.08;;
19727;SDS011;10015;52.530;13.390;2022-08-21T02:27:48;5.28;;;3.85;;
19727;SDS011;10015;52.530;13.390;2022-08-21T02:30:15;6.15;;;3.28;;
19727;SDS011;10015;52.530;13.390;2022-08-21T02:32:45;5.88;;;3.60;;
19727;SDS011;10015;52.530;13.390;2022-08-21T02:35:12;4.95;;;3.13;;
19727;SDS011;10015;52.530;13.390;2022-08-21T02:37:46;5.35;;;3.20;;
19727;SDS011;10015;52.530;13.390;2022-08-21T02:40:18;7.82;;;3.38;;
19727;SDS011;10015;52.530;13.390;2022-08-21T02:42:47;4.40;;;3.10;;
19727;SDS011;10015;52.530;13.390;2022-08-21T02:45:14;5.78;;;3.10;;
19727;SDS011;10015;52.530;13.390;2022-08-21T02:47:48;6.82;;;3.50;;
19727;SDS011;10015;52.530;13.390;2022-08-21T02:50:20;4.63;;;3.00;;
19727;SDS011;10015;52.530;13.390;2022-08-21T02:52:50;5.28;;;2.97;;
19727;SDS011;10015;52.530;13.390;2022-08-21T02:55:21;5.85;;;3.05;;
19727;SDS011;10015;52.530;13.390;2022-08-21T02:57:49;7.15;;;3.20;;
19727;SDS011;10015;52.530;13.390;2022-08-21T03:00:15;6.07;;;3.00;;
19727;SDS011;10015;52.530;13.390;2022-08-21T03:02:42;5.85;;;3.50;;
19727;SDS011;10015;52.530;13.390;2022-08-21T03:05:08;8.20;;;3.30;;
19727;SDS011;10015;52.530;13.390;2022-08-21T03:07:35;7.10;;;3.30;;
19727;SDS011;10015;52.530;13.390;2022-08-21T03:10:03;6.30;;;3.20;;
19727;SDS011;10015;52.530;13.390;2022-08-21T03:12:30;4.75;;;2.80;;
19727;SDS011;10015;52.530;13.390;2022-08-21T03:14:56;7.35;;;3.60;;
19727;SDS011;10015;52.530;13.390;2022-08-21T03:17:23;5.85;;;3.47;;
19727;SDS011;10015;52.530;13.390;2022-08-21T03:19:50;4.38;;;2.80;;
19727;SDS011;10015;52.530;13.390;2022-08-21T03:22:16;4.70;;;2.88;;
19727;SDS011;10015;52.530;13.390;2022-08-21T03:24:43;6.07;;;3.33;;
19727;SDS011;10015;52.530;13.390;2022-08-21T03:27:10;5.90;;;3.33;;
19727;SDS011;10015;52.530;13.390;2022-08-21T03:29:38;4.03;;;3.00;;
19727;SDS011;10015;52.530;13.390;2022-08-21T03:32:04;5.23;;;2.87;;
19727;SDS011;10015;52.530;13.390;2022-08-21T03:34:35;6.43;;;3.05;;
19727;SDS011;10015;52.530;13.390;2022-08-21T03:37:01;7.13;;;3.30;;
19727;SDS011;10015;52.530;13.390;2022-08-21T03:39:28;5.73;;;3.07;;
19727;SDS011;10015;52.530;13.390;2022-08-21T03:41:54;4.47;;;2.83;;
19727;SDS011;10015;52.530;13.390;2022-08-21T03:44:20;8.43;;;3.07;;
19727;SDS011;10015;52.530;13.390;2022-08-21T03:46:46;8.43;;;3.23;;
19727;SDS011;10015;52.530;13.390;2022-08-21T03:49:12;7.57;;;2.90;;
19727;SDS011;10015;52.530;13.390;2022-08-21T03:51:38;7.72;;;3.25;;
19727;SDS011;10015;52.530;13.390;2022-08-21T03:54:04;4.38;;;3.08;;
19727;SDS011;10015;52.530;13.390;2022-08-21T03:56:30;9.85;;;3.90;;
19727;SDS011;10015;52.530;13.390;2022-08-21T03:58:56;7.15;;;3.55;;
19727;SDS011;10015;52.530;13.390;2022-08-21T04:01:22;8.20;;;3.60;;
19727;SDS011;10015;52.530;13.390;2022-08-21T04:03:50;5.88;;;3.63;;
19727;SDS011;10015;52.530;13.390;2022-08-21T04:06:17;9.47;;;2.93;;
19727;SDS011;10015;52.530;13.390;2022-08-21T04:08:43;7.13;;;3.17;;
19727;SDS011;10015;52.530;13.390;2022-08-21T04:11:09;9.02;;;3.80;;
19727;SDS011;10015;52.530;13.390;2022-08-21T04:13:37;9.23;;;3.67;;
19727;SDS011;10015;52.530;13.390;2022-08-21T04:16:05;7.00;;;2.87;;
19727;SDS011;10015;52.530;13.390;2022-08-21T04:18:31;4.93;;;3.05;;
19727;SDS011;10015;52.530;13.390;2022-08-21T04:20:57;9.15;;;2.80;;
19727;SDS011;10015;52.530;13.390;2022-08-21T04:23:25;5.73;;;3.03;;
19727;SDS011;10015;52.530;13.390;2022-08-21T04:25:52;7.37;;;3.07;;
19727;SDS011;10015;52.530;13.390;2022-08-21T04:28:20;8.60;;;3.80;;
19727;SDS011;10015;52.530;13.390;2022-08-21T04:30:47;8.47;;;3.50;;
19727;SDS011;10015;52.530;13.390;2022-08-21T04:33:13;7.18;;;3.03;;
19727;SDS011;10015;52.530;13.390;2022-08-21T04:35:39;7.83;;;3.00;;
19727;SDS011;10015;52.530;13.390;2022-08-21T04:38:04;6.30;;;2.92;;
19727;SDS011;10015;52.530;13.390;2022-08-21T04:40:30;6.00;;;2.73;;
19727;SDS011;10015;52.530;13.390;2022-08-21T04:42:57;6.85;;;2.85;;
19727;SDS011;10015;52.530;13.390;2022-08-21T04:45:30;9.48;;;2.95;;
19727;SDS011;10015;52.530;13.390;2022-08-21T04:48:02;6.33;;;2.87;;
19727;SDS011;10015;52.530;13.390;2022-08-21T04:50:41;7.35;;;2.95;;
19727;SDS011;10015;52.530;13.390;2022-08-21T04:53:16;6.22;;;2.95;;
19727;SDS011;10015;52.530;13.390;2022-08-21T04:55:47;5.87;;;2.70;;
19727;SDS011;10015;52.530;13.390;2022-08-21T04:58:15;9.00;;;3.25;;
19727;SDS011;10015;52.530;13.390;2022-08-21T05:00:44;7.97;;;2.70;;
19727;SDS011;10015;52.530;13.390;2022-08-21T05:03:10;8.67;;;3.20;;
19727;SDS011;10015;52.530;13.390;2022-08-21T05:05:37;5.03;;;2.60;;
19727;SDS011;10015;52.530;13.390;2022-08-21T05:08:05;5.82;;;2.63;;
19727;SDS011;10015;52.530;13.390;2022-08-21T05:10:33;10.23;;;3.03;;
19727;SDS011;10015;52.530;13.390;2022-08-21T05:12:59;8.60;;;2.60;;
19727;SDS011;10015;52.530;13.390;2022-08-21T05:15:26;7.47;;;2.28;;
19727;SDS011;10015;52.530;13.390;2022-08-21T05:17:52;5.43;;;2.47;;
19727;SDS011;10015;52.530;13.390;2022-08-21T05:20:18;6.77;;;2.53;;
19727;SDS011;10015;52.530;13.390;2022-08-21T05:22:44;6.70;;;2.53;;
19727;SDS011;10015;52.530;13.390;2022-08-21T05:25:11;5.20;;;2.55;;
19727;SDS011;10015;52.530;13.390;2022-08-21T05:27:37;7.90;;;2.60;;
19727;SDS011;10015;52.530;13.390;2022-08-21T05:30:04;7.93;;;2.30;;
19727;SDS011;10015;52.530;13.390;2022-08-21T05:32:34;5.73;;;2.50;;
19727;SDS011;10015;52.530;13.390;2022-08-21T05:35:02;5.72;;;2.20;;
19727;SDS011;10015;52.530;13.390;2022-08-21T05:37:32;7.53;;;2.57;;
19727;SDS011;10015;52.530;13.390;2022-08-21T05:39:59;8.33;;;2.47;;
19727;SDS011;10015;52.530;13.390;2022-08-21T05:42:25;4.13;;;2.20;;
19727;SDS011;10015;52.530;13.390;2022-08-21T05:44:53;4.32;;;2.40;;
19727;SDS011;10015;52.530;13.390;2022-08-21T05:47:19;5.57;;;2.00;;
19727;SDS011;10015;52.530;13.390;2022-08-21T05:49:44;5.07;;;2.38;;
19727;SDS011;10015;52.530;13.390;2022-08-21T05:52:10;7.70;;;2.33;;
19727;SDS011;10015;52.530;13.390;2022-08-21T05:54:37;6.17;;;2.33;;
19727;SDS011;10015;52.530;13.390;2022-08-21T05:57:03;5.88;;;1.80;;
19727;SDS011;10015;52.530;13.390;2022-08-21T05:59:29;5.20;;;2.00;;
19727;SDS011;10015;52.530;13.390;2022-08-21T06:01:54;4.50;;;1.90;;
19727;SDS011;10015;52.530;13.390;2022-08-21T06:04:20;5.78;;;1.90;;
19727;SDS011;10015;52.530;13.390;2022-08-21T06:06:46;5.27;;;1.80;;
19727;SDS011;10015;52.530;13.390;2022-08-21T06:09:12;6.57;;;1.92;;
19727;SDS011;10015;52.530;13.390;2022-08-21T06:11:38;6.22;;;2.33;;
19727;SDS011;10015;52.530;13.390;2022-08-21T06:14:04;7.50;;;2.20;;
19727;SDS011;10015;52.530;13.390;2022-08-21T06:16:31;8.65;;;2.13;;
19727;SDS011;10015;52.530;13.390;2022-08-21T06:18:58;5.55;;;2.20;;
19727;SDS011;10015;52.530;13.390;2022-08-21T06:21:24;8.93;;;2.27;;
19727;SDS011;10015;52.530;13.390;2022-08-21T06:23:50;6.75;;;2.30;;
19727;SDS011;10015;52.530;13.390;2022-08-21T06:26:16;6.57;;;2.40;;
19727;SDS011;10015;52.530;13.390;2022-08-21T06:28:42;5.00;;;2.10;;
19727;SDS011;10015;52.530;13.390;2022-08-21T06:31:14;6.75;;;2.47;;
19727;SDS011;10015;52.530;13.390;2022-08-21T06:33:44;8.17;;;2.60;;
19727;SDS011;10015;52.530;13.390;2022-08-21T06:36:11;7.25;;;2.47;;
19727;SDS011;10015;52.530;13.390;2022-08-21T06:41:08;7.70;;;2.42;;
19727;SDS011;10015;52.530;13.390;2022-08-21T06:43:34;7.87;;;2.37;;
19727;SDS011;10015;52.530;13.390;2022-08-21T06:46:00;9.57;;;2.58;;
19727;SDS011;10015;52.530;13.390;2022-08-21T06:48:26;5.53;;;2.25;;
19727;SDS011;10015;52.530;13.390;2022-08-21T06:50:52;9.52;;;2.58;;
19727;SDS011;10015;52.530;13.390;2022-08-21T06:53:19;7.70;;;3.03;;
19727;SDS011;10015;52.530;13.390;2022-08-21T06:55:46;8.05;;;2.95;;
19727;SDS011;10015;52.530;13.390;2022-08-21T06:58:12;6.45;;;2.35;;
19727;SDS011;10015;52.530;13.390;2022-08-21T07:00:39;5.10;;;2.53;;
19727;SDS011;10015;52.530;13.390;2022-08-21T07:03:15;8.27;;;2.50;;
19727;SDS011;10015;52.530;13.390;2022-08-21T07:05:44;9.63;;;2.75;;
19727;SDS011;10015;52.530;13.390;2022-08-21T07:08:10;7.82;;;2.60;;
19727;SDS011;10015;52.530;13.390;2022-08-21T07:10:36;6.18;;;2.67;;
19727;SDS011;10015;52.530;13.390;2022-08-21T07:13:02;7.03;;;2.33;;
19727;SDS011;10015;52.530;13.390;2022-08-21T07:15:29;4.75;;;2.20;;
19727;SDS011;10015;52.530;13.390;2022-08-21T07:17:55;3.97;;;2.10;;
19727;SDS011;10015;52.530;13.390;2022-08-21T07:20:21;5.90;;;2.10;;
19727;SDS011;10015;52.530;13.390;2022-08-21T07:22:47;6.00;;;2.78;;
19727;SDS011;10015;52.530;13.390;2022-08-21T07:25:13;9.45;;;2.40;;
19727;SDS011;10015;52.530;13.390;2022-08-21T07:27:39;6.78;;;2.35;;
19727;SDS011;10015;52.530;13.390;2022-08-21T07:30:05;4.68;;;1.80;;
19727;SDS011;10015;52.530;13.390;2022-08-21T07:32:32;6.75;;;2.20;;
19727;SDS011;10015;52.530;13.390;2022-08-21T07:34:58;5.22;;;1.80;;
19727;SDS011;10015;52.530;13.390;2022-08-21T07:37:24;5.35;;;2.20;;
19727;SDS011;10015;52.530;13.390;2022-08-21T07:39:50;4.88;;;2.05;;
19727;SDS011;10015;52.530;13.390;2022-08-21T07:42:16;4.97;;;1.60;;
19727;SDS011;10015;52.530;13.390;2022-08-21T07:44:42;5.32;;;2.03;;
19727;SDS011;10015;52.530;13.390;2022-08-21T07:47:08;4.82;;;1.60;;
19727;SDS011;10015;52.530;13.390;2022-08-21T07:49:34;5.80;;;1.50;;
19727;SDS011;10015;52.530;13.390;2022-08-21T07:52:00;7.35;;;1.45;;
19727;SDS011;10015;52.530;13.390;2022-08-21T07:54:27;6.30;;;1.52;;
19727;SDS011;10015;52.530;13.390;2022-08-21T07:56:53;6.35;;;1.40;;
19727;SDS011;10015;52.530;13.390;2022-08-21T07:59:19;4.93;;;1.45;;
19727;SDS011;10015;52.530;13.390;2022-08-21T08:01:45;3.63;;;1.17;;
19727;SDS011;10015;52.530;13.390;2022-08-21T08:04:12;4.07;;;1.63;;
19727;SDS011;10015;52.530;13.390;2022-08-21T08:06:40;4.43;;;1.65;;
19727;SDS011;10015;52.530;13.390;2022-08-21T08:09:05;5.55;;;1.48;;
19727;SDS011;10015;52.530;13.390;2022-08-21T08:11:31;3.60;;;1.55;;
19727;SDS011;10015;52.530;13.390;2022-08-21T08:13:59;2.03;;;1.30;;
19727;SDS011;10015;52.530;13.390;2022-08-21T08:16:25;4.43;;;1.60;;
19727;SDS011;10015;52.530;13.390;2022-08-21T08:18:51;4.05;;;1.70;;
19727;SDS011;10015;52.530;13.390;2022-08-21T08:21:19;4.50;;;1.48;;
19727;SDS011;10015;52.530;13.390;2022-08-21T08:23:46;4.18;;;1.55;;
19727;SDS011;10015;52.530;13.390;2022-08-21T08:26:12;3.78;;;1.45;;
19727;SDS011;10015;52.530;13.390;2022-08-21T08:28:38;2.85;;;1.30;;
19727;SDS011;10015;52.530;13.390;2022-08-21T08:31:04;4.28;;;1.50;;
19727;SDS011;10015;52.530;13.390;2022-08-21T08:33:30;3.55;;;1.25;;
19727;SDS011;10015;52.530;13.390;2022-08-21T08:35:56;3.08;;;1.48;;
19727;SDS011;10015;52.530;13.390;2022-08-21T08:38:23;5.68;;;1.60;;
19727;SDS011;10015;52.530;13.390;2022-08-21T08:43:41;6.70;;;1.52;;
19727;SDS011;10015;52.530;13.390;2022-08-21T08:46:14;3.78;;;1.40;;
19727;SDS011;10015;52.530;13.390;2022-08-21T08:48:55;3.58;;;1.45;;
19727;SDS011;10015;52.530;13.390;2022-08-21T08:51:46;4.97;;;1.20;;
19727;SDS011;10015;52.530;13.390;2022-08-21T08:54:21;6.75;;;1.70;;
19727;SDS011;10015;52.530;13.390;2022-08-21T08:57:00;3.75;;;1.38;;
19727;SDS011;10015;52.530;13.390;2022-08-21T08:59:39;3.40;;;1.10;;
19727;SDS011;10015;52.530;13.390;2022-08-21T09:02:08;4.38;;;1.48;;
19727;SDS011;10015;52.530;13.390;2022-08-21T09:04:36;5.25;;;1.42;;
19727;SDS011;10015;52.530;13.390;2022-08-21T09:12:19;3.67;;;1.20;;
19727;SDS011;10015;52.530;13.390;2022-08-21T09:17:46;4.55;;;1.50;;
19727;SDS011;10015;52.530;13.390;2022-08-21T09:20:33;2.85;;;1.30;;
19727;SDS011;10015;52.530;13.390;2022-08-21T09:28:26;3.25;;;1.30;;
19727;SDS011;10015;52.530;13.390;2022-08-21T09:30:55;3.55;;;1.70;;
19727;SDS011;10015;52.530;13.390;2022-08-21T09:33:23;5.75;;;1.88;;
19727;SDS011;10015;52.530;13.390;2022-08-21T09:35:53;3.67;;;1.60;;
19727;SDS011;10015;52.530;13.390;2022-08-21T09:38:31;4.25;;;1.58;;
19727;SDS011;10015;52.530;13.390;2022-08-21T09:41:06;1.85;;;1.33;;
19727;SDS011;10015;52.530;13.390;2022-08-21T09:43:34;3.95;;;1.90;;
19727;SDS011;10015;52.530;13.390;2022-08-21T09:46:02;6.10;;;1.98;;
19727;SDS011;10015;52.530;13.390;2022-08-21T09:48:37;5.75;;;1.55;;
19727;SDS011;10015;52.530;13.390;2022-08-21T09:51:09;5.30;;;1.80;;
19727;SDS011;10015;52.530;13.390;2022-08-21T09:53:38;5.53;;;1.70;;
19727;SDS011;10015;52.530;13.390;2022-08-21T09:56:20;6.07;;;1.75;;
19727;SDS011;10015;52.530;13.390;2022-08-21T09:59:20;5.45;;;1.90;;
19727;SDS011;10015;52.530;13.390;2022-08-21T10:01:53;2.72;;;1.42;;
19727;SDS011;10015;52.530;13.390;2022-08-21T10:04:20;7.13;;;1.75;;
19727;SDS011;10015;52.530;13.390;2022-08-21T10:06:48;6.20;;;2.03;;
19727;SDS011;10015;52.530;13.390;2022-08-21T10:09:15;4.38;;;2.05;;
19727;SDS011;10015;52.530;13.390;2022-08-21T10:11:47;4.57;;;1.75;;
19727;SDS011;10015;52.530;13.390;2022-08-21T10:14:37;3.08;;;1.50;;
19727;SDS011;10015;52.530;13.390;2022-08-21T10:17:15;2.53;;;1.40;;
19727;SDS011;10015;52.530;13.390;2022-08-21T10:22:52;3.72;;;1.95;;
19727;SDS011;10015;52.530;13.390;2022-08-21T10:35:31;3.20;;;1.40;;
19727;SDS011;10015;52.530;13.390;2022-08-21T10:49:39;3.13;;;1.30;;
19727;SDS011;10015;52.530;13.390;2022-08-21T10:55:12;14.98;;;7.47;;
19727;SDS011;10015;52.530;13.390;2022-08-21T10:57:44;6.97;;;3.42;;
19727;SDS011;10015;52.530;13.390;2022-08-21T11:00:29;2.72;;;1.20;;
19727;SDS011;10015;52.530;13.390;2022-08-21T11:06:11;18.92;;;10.23;;
19727;SDS011;10015;52.530;13.390;2022-08-21T11:08:45;13.18;;;6.65;;
19727;SDS011;10015;52.530;13.390;2022-08-21T11:14:18;7.25;;;3.67;;
19727;SDS011;10015;52.530;13.390;2022-08-21T11:16:48;2.85;;;1.70;;
19727;SDS011;10015;52.530;13.390;2022-08-21T11:22:10;3.35;;;1.35;;
19727;SDS011;10015;52.530;13.390;2022-08-21T11:27:27;9.50;;;5.15;;
19727;SDS011;10015;52.530;13.390;2022-08-21T11:29:57;5.35;;;3.42;;
19727;SDS011;10015;52.530;13.390;2022-08-21T11:35:41;3.35;;;1.08;;
19727;SDS011;10015;52.530;13.390;2022-08-21T11:38:20;3.22;;;1.17;;
19727;SDS011;10015;52.530;13.390;2022-08-21T11:44:00;2.20;;;0.98;;
19727;SDS011;10015;52.530;13.390;2022-08-21T11:46:53;2.03;;;1.40;;
19727;SDS011;10015;52.530;13.390;2022-08-21T11:54:44;2.15;;;1.20;;
19727;SDS011;10015;52.530;13.390;2022-08-21T12:02:44;1.05;;;0.90;;
19727;SDS011;10015;52.530;13.390;2022-08-21T12:05:22;2.47;;;1.10;;
19727;SDS011;10015;52.530;13.390;2022-08-21T12:07:59;2.75;;;1.83;;
19727;SDS011;10015;52.530;13.390;2022-08-21T12:10:31;19.25;;;11.77;;
19727;SDS011;10015;52.530;13.390;2022-08-21T12:13:09;7.32;;;3.47;;
19727;SDS011;10015;52.530;13.390;2022-08-21T12:15:47;2.22;;;1.20;;
19727;SDS011;10015;52.530;13.390;2022-08-21T12:18:27;4.45;;;0.93;;
19727;SDS011;10015;52.530;13.390;2022-08-21T12:20:57;2.45;;;1.00;;
19727;SDS011;10015;52.530;13.390;2022-08-21T12:26:56;2.90;;;1.00;;
19727;SDS011;10015;52.530;13.390;2022-08-21T12:29:38;1.90;;;0.85;;
19727;SDS011;10015;52.530;13.390;2022-08-21T12:34:45;4.65;;;1.20;;
19727;SDS011;10015;52.530;13.390;2022-08-21T12:40:03;1.63;;;1.00;;
19727;SDS011;10015;52.530;13.390;2022-08-21T12:42:37;1.65;;;1.00;;
19727;SDS011;10015;52.530;13.390;2022-08-21T12:45:18;2.65;;;1.00;;
19727;SDS011;10015;52.530;13.390;2022-08-21T12:48:10;3.08;;;1.10;;
19727;SDS011;10015;52.530;13.390;2022-08-21T12:50:48;1.08;;;0.80;;
19727;SDS011;10015;52.530;13.390;2022-08-21T12:53:24;1.45;;;0.80;;
19727;SDS011;10015;52.530;13.390;2022-08-21T12:55:57;2.42;;;1.00;;
19727;SDS011;10015;52.530;13.390;2022-08-21T12:58:29;2.13;;;0.93;;
19727;SDS011;10015;52.530;13.390;2022-08-21T13:00:59;3.78;;;0.95;;
19727;SDS011;10015;52.530;13.390;2022-08-21T13:03:48;3.20;;;1.02;;
19727;SDS011;10015;52.530;13.390;2022-08-21T13:06:15;2.47;;;1.00;;
19727;SDS011;10015;52.530;13.390;2022-08-21T13:08:44;2.72;;;1.10;;
19727;SDS011;10015;52.530;13.390;2022-08-21T13:11:13;2.35;;;1.08;;
19727;SDS011;10015;52.530;13.390;2022-08-21T13:13:43;1.98;;;1.30;;
19727;SDS011;10015;52.530;13.390;2022-08-21T13:16:13;2.25;;;1.10;;
19727;SDS011;10015;52.530;13.390;2022-08-21T13:18:55;3.42;;;1.40;;
19727;SDS011;10015;52.530;13.390;2022-08-21T13:21:28;1.70;;;1.17;;
19727;SDS011;10015;52.530;13.390;2022-08-21T13:24:21;3.22;;;1.33;;
19727;SDS011;10015;52.530;13.390;2022-08-21T13:26:52;1.88;;;1.23;;
19727;SDS011;10015;52.530;13.390;2022-08-21T13:29:21;3.53;;;1.20;;
19727;SDS011;10015;52.530;13.390;2022-08-21T13:31:53;8.30;;;4.47;;
19727;SDS011;10015;52.530;13.390;2022-08-21T13:34:22;6.47;;;3.85;;
19727;SDS011;10015;52.530;13.390;2022-08-21T13:36:54;11.52;;;5.82;;
19727;SDS011;10015;52.530;13.390;2022-08-21T13:39:23;11.00;;;6.43;;
19727;SDS011;10015;52.530;13.390;2022-08-21T13:41:51;8.00;;;2.03;;
19727;SDS011;10015;52.530;13.390;2022-08-21T13:46:51;3.53;;;1.50;;
19727;SDS011;10015;52.530;13.390;2022-08-21T13:49:21;2.88;;;1.40;;
19727;SDS011;10015;52.530;13.390;2022-08-21T13:51:59;4.65;;;1.70;;
19727;SDS011;10015;52.530;13.390;2022-08-21T13:54:26;4.55;;;1.60;;
19727;SDS011;10015;52.530;13.390;2022-08-21T13:57:00;6.15;;;1.58;;
19727;SDS011;10015;52.530;13.390;2022-08-21T13:59:35;5.00;;;1.90;;
19727;SDS011;10015;52.530;13.390;2022-08-21T14:02:13;4.47;;;1.80;;
19727;SDS011;10015;52.530;13.390;2022-08-21T14:04:51;5.97;;;1.98;;
19727;SDS011;10015;52.530;13.390;2022-08-21T14:07:26;4.88;;;2.20;;
19727;SDS011;10015;52.530;13.390;2022-08-21T14:10:00;6.53;;;2.20;;
19727;SDS011;10015;52.530;13.390;2022-08-21T14:12:29;4.53;;;1.60;;
19727;SDS011;10015;52.530;13.390;2022-08-21T14:15:06;8.75;;;4.53;;
19727;SDS011;10015;52.530;13.390;2022-08-21T14:17:35;10.18;;;4.60;;
19727;SDS011;10015;52.530;13.390;2022-08-21T14:20:04;3.08;;;1.85;;
19727;SDS011;10015;52.530;13.390;2022-08-21T14:22:39;2.85;;;1.70;;
19727;SDS011;10015;52.530;13.390;2022-08-21T14:25:09;6.53;;;2.17;;
19727;SDS011;10015;52.530;13.390;2022-08-21T14:27:44;4.40;;;2.00;;
19727;SDS011;10015;52.530;13.390;2022-08-21T14:30:18;5.85;;;2.70;;
19727;SDS011;10015;52.530;13.390;2022-08-21T14:32:47;4.93;;;1.80;;
19727;SDS011;10015;52.530;13.390;2022-08-21T14:35:14;8.38;;;1.60;;
19727;SDS011;10015;52.530;13.390;2022-08-21T14:37:43;4.05;;;1.40;;
19727;SDS011;10015;52.530;13.390;2022-08-21T14:40:10;3.00;;;1.73;;
19727;SDS011;10015;52.530;13.390;2022-08-21T14:42:37;7.80;;;4.53;;
19727;SDS011;10015;52.530;13.390;2022-08-21T14:45:15;8.10;;;3.92;;
19727;SDS011;10015;52.530;13.390;2022-08-21T14:47:45;3.72;;;1.80;;
19727;SDS011;10015;52.530;13.390;2022-08-21T14:50:11;2.88;;;1.60;;
19727;SDS011;10015;52.530;13.390;2022-08-21T14:52:39;5.30;;;1.88;;
19727;SDS011;10015;52.530;13.390;2022-08-21T14:55:06;4.28;;;1.55;;
19727;SDS011;10015;52.530;13.390;2022-08-21T14:57:36;2.88;;;1.90;;
19727;SDS011;10015;52.530;13.390;2022-08-21T15:00:03;3.30;;;1.70;;
19727;SDS011;10015;52.530;13.390;2022-08-21T15:02:30;3.33;;;1.65;;
19727;SDS011;10015;52.530;13.390;2022-08-21T15:04:56;4.38;;;1.80;;
19727;SDS011;10015;52.530;13.390;2022-08-21T15:07:22;5.88;;;1.63;;
19727;SDS011;10015;52.530;13.390;2022-08-21T15:09:48;3.67;;;1.80;;
19727;SDS011;10015;52.530;13.390;2022-08-21T15:12:14;5.53;;;1.70;;
19727;SDS011;10015;52.530;13.390;2022-08-21T15:14:40;7.20;;;2.53;;
19727;SDS011;10015;52.530;13.390;2022-08-21T15:17:07;4.63;;;1.75;;
19727;SDS011;10015;52.530;13.390;2022-08-21T15:19:35;5.10;;;1.92;;
19727;SDS011;10015;52.530;13.390;2022-08-21T15:22:02;2.97;;;1.85;;
19727;SDS011;10015;52.530;13.390;2022-08-21T15:24:28;5.85;;;1.80;;
19727;SDS011;10015;52.530;13.390;2022-08-21T15:26:55;3.72;;;1.83;;
19727;SDS011;10015;52.530;13.390;2022-08-21T15:29:22;4.93;;;2.28;;
19727;SDS011;10015;52.530;13.390;2022-08-21T15:31:52;4.10;;;1.75;;
19727;SDS011;10015;52.530;13.390;2022-08-21T15:34:22;6.07;;;1.90;;
19727;SDS011;10015;52.530;13.390;2022-08-21T15:36:48;5.53;;;1.70;;
19727;SDS011;10015;52.530;13.390;2022-08-21T15:39:14;4.18;;;1.70;;
19727;SDS011;10015;52.530;13.390;2022-08-21T15:41:40;4.22;;;2.10;;
19727;SDS011;10015;52.530;13.390;2022-08-21T15:46:38;3.33;;;1.60;;
19727;SDS011;10015;52.530;13.390;2022-08-21T15:49:04;3.53;;;1.70;;
19727;SDS011;10015;52.530;13.390;2022-08-21T15:51:31;4.85;;;1.70;;
19727;SDS011;10015;52.530;13.390;2022-08-21T15:53:58;4.47;;;1.70;;
19727;SDS011;10015;52.530;13.390;2022-08-21T15:56:26;3.38;;;1.85;;
19727;SDS011;10015;52.530;13.390;2022-08-21T15:59:13;6.63;;;2.00;;
19727;SDS011;10015;52.530;13.390;2022-08-21T16:01:48;7.15;;;1.58;;
19727;SDS011;10015;52.530;13.390;2022-08-21T16:04:19;6.03;;;2.10;;
19727;SDS011;10015;52.530;13.390;2022-08-21T16:06:48;7.75;;;2.10;;
19727;SDS011;10015;52.530;13.390;2022-08-21T16:09:15;3.08;;;1.70;;
19727;SDS011;10015;52.530;13.390;2022-08-21T16:11:41;3.17;;;1.70;;
19727;SDS011;10015;52.530;13.390;2022-08-21T16:14:09;2.47;;;1.58;;
19727;SDS011;10015;52.530;13.390;2022-08-21T16:16:37;5.05;;;1.70;;